Terminal Aerodrome Forecast
Issued by NWS Nashville, TN

Home | Current Version | Previous Version | Text Only | Print | Product List | Glossary On
Versions: 1 2 3 4 5 6 7 8 9 10 11 12 13 14 15 16 17 18 19 20 21 22 23 24 25 26 27 28 29 30 31 32
000
FTUS44 KOHX 050500
TAFBNA
TAF
KBNA 050523Z 0506/0606 36014G25KT 3SM -FZRAPL BR BKN008 OVC011
     FM050800 36014G25KT 2SM -SN BR OVC008
     FM051200 36013G20KT 2SM -SN BR OVC007
     FM051500 35012G20KT 4SM -SN BR OVC015
     FM051800 36012G20KT P6SM OVC015
     FM060000 36012KT P6SM BKN025=

USA.gov is the U.S. government's official web portal to all federal, state and local government web resources and services.